sensor_id;sensor_type;location;lat;lon;timestamp;temperature;humidity
5059;DHT22;2548;52.050;11.036;2022-12-07T00:01:29;1.40;99.90
5059;DHT22;2548;52.050;11.036;2022-12-07T00:03:59;1.40;99.90
5059;DHT22;2548;52.050;11.036;2022-12-07T00:06:31;1.40;99.90
5059;DHT22;2548;52.050;11.036;2022-12-07T00:08:59;1.30;99.90
5059;DHT22;2548;52.050;11.036;2022-12-07T00:11:26;1.30;99.90
5059;DHT22;2548;52.050;11.036;2022-12-07T00:13:58;1.40;99.90
5059;DHT22;2548;52.050;11.036;2022-12-07T00:16:27;1.40;99.90
5059;DHT22;2548;52.050;11.036;2022-12-07T00:18:55;1.50;99.90
5059;DHT22;2548;52.050;11.036;2022-12-07T00:21:25;1.50;99.90
5059;DHT22;2548;52.050;11.036;2022-12-07T00:23:54;1.50;99.90
5059;DHT22;2548;52.050;11.036;2022-12-07T00:26:24;1.50;99.90
5059;DHT22;2548;52.050;11.036;2022-12-07T00:28:55;1.50;99.90
5059;DHT22;2548;52.050;11.036;2022-12-07T00:31:26;1.50;99.90
5059;DHT22;2548;52.050;11.036;2022-12-07T00:33:54;1.50;99.90
5059;DHT22;2548;52.050;11.036;2022-12-07T00:36:23;1.50;99.90
5059;DHT22;2548;52.050;11.036;2022-12-07T00:38:50;1.60;99.90
5059;DHT22;2548;52.050;11.036;2022-12-07T00:41:19;1.60;99.90
5059;DHT22;2548;52.050;11.036;2022-12-07T00:43:47;1.60;99.90
5059;DHT22;2548;52.050;11.036;2022-12-07T00:46:18;1.60;99.90
5059;DHT22;2548;52.050;11.036;2022-12-07T00:48:47;1.70;99.90
5059;DHT22;2548;52.050;11.036;2022-12-07T00:51:16;1.70;99.90
5059;DHT22;2548;52.050;11.036;2022-12-07T00:53:44;1.70;99.90
5059;DHT22;2548;52.050;11.036;2022-12-07T00:56:13;1.70;99.90
5059;DHT22;2548;52.050;11.036;2022-12-07T00:58:40;1.80;99.90
5059;DHT22;2548;52.050;11.036;2022-12-07T01:01:10;1.70;99.90
5059;DHT22;2548;52.050;11.036;2022-12-07T01:03:39;1.70;99.90
5059;DHT22;2548;52.050;11.036;2022-12-07T01:06:06;1.70;99.90
5059;DHT22;2548;52.050;11.036;2022-12-07T01:08:34;1.70;99.90
5059;DHT22;2548;52.050;11.036;2022-12-07T01:11:03;1.80;99.90
5059;DHT22;2548;52.050;11.036;2022-12-07T01:13:31;1.70;99.90
5059;DHT22;2548;52.050;11.036;2022-12-07T01:16:01;1.80;99.90
5059;DHT22;2548;52.050;11.036;2022-12-07T01:18:30;1.80;99.90
5059;DHT22;2548;52.050;11.036;2022-12-07T01:21:01;1.70;99.90
5059;DHT22;2548;52.050;11.036;2022-12-07T01:23:29;1.80;99.90
5059;DHT22;2548;52.050;11.036;2022-12-07T01:25:58;1.80;99.90
5059;DHT22;2548;52.050;11.036;2022-12-07T01:28:27;1.80;99.90
5059;DHT22;2548;52.050;11.036;2022-12-07T01:30:56;1.80;99.90
5059;DHT22;2548;52.050;11.036;2022-12-07T01:33:24;1.80;99.90
5059;DHT22;2548;52.050;11.036;2022-12-07T01:35:53;1.80;99.90
5059;DHT22;2548;52.050;11.036;2022-12-07T01:38:22;1.90;99.90
5059;DHT22;2548;52.050;11.036;2022-12-07T01:40:54;1.90;99.90
5059;DHT22;2548;52.050;11.036;2022-12-07T01:43:23;1.90;99.90
5059;DHT22;2548;52.050;11.036;2022-12-07T01:45:51;2.00;99.90
5059;DHT22;2548;52.050;11.036;2022-12-07T01:48:22;2.00;99.90
5059;DHT22;2548;52.050;11.036;2022-12-07T01:50:52;2.10;99.90
5059;DHT22;2548;52.050;11.036;2022-12-07T01:53:25;2.20;99.90
5059;DHT22;2548;52.050;11.036;2022-12-07T01:55:55;2.20;99.90
5059;DHT22;2548;52.050;11.036;2022-12-07T01:58:24;2.30;99.90
5059;DHT22;2548;52.050;11.036;2022-12-07T02:00:52;2.30;99.90
5059;DHT22;2548;52.050;11.036;2022-12-07T02:03:23;2.40;99.90
5059;DHT22;2548;52.050;11.036;2022-12-07T02:05:53;2.50;99.90
5059;DHT22;2548;52.050;11.036;2022-12-07T02:08:22;2.50;99.90
5059;DHT22;2548;52.050;11.036;2022-12-07T02:10:51;2.60;99.90
5059;DHT22;2548;52.050;11.036;2022-12-07T02:13:20;2.60;99.90
5059;DHT22;2548;52.050;11.036;2022-12-07T02:16:02;2.70;99.90
5059;DHT22;2548;52.050;11.036;2022-12-07T02:18:42;2.70;99.90
5059;DHT22;2548;52.050;11.036;2022-12-07T02:21:15;2.70;99.90
5059;DHT22;2548;52.050;11.036;2022-12-07T02:30:01;2.70;99.90
5059;DHT22;2548;52.050;11.036;2022-12-07T02:32:40;2.80;99.90
5059;DHT22;2548;52.050;11.036;2022-12-07T02:35:12;2.80;99.90
5059;DHT22;2548;52.050;11.036;2022-12-07T02:37:46;2.80;99.90
5059;DHT22;2548;52.050;11.036;2022-12-07T02:40:20;2.80;99.90
5059;DHT22;2548;52.050;11.036;2022-12-07T02:42:52;2.90;99.90
5059;DHT22;2548;52.050;11.036;2022-12-07T02:45:25;2.90;99.90
5059;DHT22;2548;52.050;11.036;2022-12-07T02:47:56;2.90;99.90
5059;DHT22;2548;52.050;11.036;2022-12-07T02:50:26;3.00;99.90
5059;DHT22;2548;52.050;11.036;2022-12-07T02:52:53;3.00;99.90
5059;DHT22;2548;52.050;11.036;2022-12-07T02:55:25;3.00;99.90
5059;DHT22;2548;52.050;11.036;2022-12-07T02:58:10;3.00;99.90
5059;DHT22;2548;52.050;11.036;2022-12-07T03:00:48;3.00;99.90
5059;DHT22;2548;52.050;11.036;2022-12-07T03:03:18;3.00;99.90
5059;DHT22;2548;52.050;11.036;2022-12-07T03:05:56;3.10;99.90
5059;DHT22;2548;52.050;11.036;2022-12-07T03:08:32;3.10;99.90
5059;DHT22;2548;52.050;11.036;2022-12-07T03:11:04;3.10;99.90
5059;DHT22;2548;52.050;11.036;2022-12-07T03:13:38;3.10;99.90
5059;DHT22;2548;52.050;11.036;2022-12-07T03:16:13;3.10;99.90
5059;DHT22;2548;52.050;11.036;2022-12-07T03:18:45;3.10;99.90
5059;DHT22;2548;52.050;11.036;2022-12-07T03:21:16;3.10;99.90
5059;DHT22;2548;52.050;11.036;2022-12-07T03:23:47;3.10;99.90
5059;DHT22;2548;52.050;11.036;2022-12-07T03:26:17;3.10;99.90
5059;DHT22;2548;52.050;11.036;2022-12-07T03:28:49;3.20;99.90
5059;DHT22;2548;52.050;11.036;2022-12-07T03:31:22;3.20;99.90
5059;DHT22;2548;52.050;11.036;2022-12-07T03:33:56;3.10;99.90
5059;DHT22;2548;52.050;11.036;2022-12-07T03:36:31;3.00;99.90
5059;DHT22;2548;52.050;11.036;2022-12-07T03:39:04;3.10;99.90
5059;DHT22;2548;52.050;11.036;2022-12-07T03:41:37;3.10;99.90
5059;DHT22;2548;52.050;11.036;2022-12-07T03:44:05;3.10;99.90
5059;DHT22;2548;52.050;11.036;2022-12-07T03:46:40;3.00;99.90
5059;DHT22;2548;52.050;11.036;2022-12-07T03:49:15;3.00;99.90
5059;DHT22;2548;52.050;11.036;2022-12-07T03:51:49;3.10;99.90
5059;DHT22;2548;52.050;11.036;2022-12-07T03:54:23;3.00;99.90
5059;DHT22;2548;52.050;11.036;2022-12-07T03:56:52;3.00;99.90
5059;DHT22;2548;52.050;11.036;2022-12-07T03:59:21;3.00;99.90
5059;DHT22;2548;52.050;11.036;2022-12-07T04:01:54;3.00;99.90
5059;DHT22;2548;52.050;11.036;2022-12-07T04:04:22;3.00;99.90
5059;DHT22;2548;52.050;11.036;2022-12-07T04:06:50;3.10;99.90
5059;DHT22;2548;52.050;11.036;2022-12-07T04:09:18;3.10;99.90
5059;DHT22;2548;52.050;11.036;2022-12-07T04:11:45;3.10;99.90
5059;DHT22;2548;52.050;11.036;2022-12-07T04:14:13;3.10;99.90
5059;DHT22;2548;52.050;11.036;2022-12-07T04:16:47;3.10;99.90
5059;DHT22;2548;52.050;11.036;2022-12-07T04:19:18;3.20;99.90
5059;DHT22;2548;52.050;11.036;2022-12-07T04:21:46;3.20;99.90
5059;DHT22;2548;52.050;11.036;2022-12-07T04:24:14;3.20;99.90
5059;DHT22;2548;52.050;11.036;2022-12-07T04:26:43;3.20;99.90
5059;DHT22;2548;52.050;11.036;2022-12-07T04:29:10;3.20;99.90
5059;DHT22;2548;52.050;11.036;2022-12-07T04:31:38;3.20;99.90
5059;DHT22;2548;52.050;11.036;2022-12-07T04:34:06;3.20;99.90
5059;DHT22;2548;52.050;11.036;2022-12-07T04:36:35;3.20;99.90
5059;DHT22;2548;52.050;11.036;2022-12-07T04:39:04;3.20;99.90
5059;DHT22;2548;52.050;11.036;2022-12-07T04:41:32;3.20;99.90
5059;DHT22;2548;52.050;11.036;2022-12-07T04:44:00;3.20;99.90
5059;DHT22;2548;52.050;11.036;2022-12-07T04:46:30;3.20;99.90
5059;DHT22;2548;52.050;11.036;2022-12-07T04:48:59;3.20;99.90
5059;DHT22;2548;52.050;11.036;2022-12-07T04:51:28;3.20;99.90
5059;DHT22;2548;52.050;11.036;2022-12-07T04:53:57;3.30;99.90
5059;DHT22;2548;52.050;11.036;2022-12-07T04:56:25;3.20;99.90
5059;DHT22;2548;52.050;11.036;2022-12-07T04:58:54;3.30;99.90
5059;DHT22;2548;52.050;11.036;2022-12-07T05:01:22;3.30;99.90
5059;DHT22;2548;52.050;11.036;2022-12-07T05:03:50;3.20;99.90
5059;DHT22;2548;52.050;11.036;2022-12-07T05:06:18;3.20;99.90
5059;DHT22;2548;52.050;11.036;2022-12-07T05:08:46;3.30;99.90
5059;DHT22;2548;52.050;11.036;2022-12-07T05:11:15;3.30;99.90
5059;DHT22;2548;52.050;11.036;2022-12-07T05:13:56;3.30;99.90
5059;DHT22;2548;52.050;11.036;2022-12-07T05:16:24;3.30;99.90
5059;DHT22;2548;52.050;11.036;2022-12-07T05:18:51;3.30;99.90
5059;DHT22;2548;52.050;11.036;2022-12-07T05:21:19;3.30;99.90
5059;DHT22;2548;52.050;11.036;2022-12-07T05:23:46;3.30;99.90
5059;DHT22;2548;52.050;11.036;2022-12-07T05:26:15;3.30;99.90
5059;DHT22;2548;52.050;11.036;2022-12-07T05:28:43;3.30;99.90
5059;DHT22;2548;52.050;11.036;2022-12-07T05:31:11;3.30;99.90
5059;DHT22;2548;52.050;11.036;2022-12-07T05:33:38;3.30;99.90
5059;DHT22;2548;52.050;11.036;2022-12-07T05:36:06;3.40;99.90
5059;DHT22;2548;52.050;11.036;2022-12-07T05:38:33;3.40;99.90
5059;DHT22;2548;52.050;11.036;2022-12-07T05:41:01;3.30;99.90
5059;DHT22;2548;52.050;11.036;2022-12-07T05:43:32;3.30;99.90
5059;DHT22;2548;52.050;11.036;2022-12-07T05:45:59;3.40;99.90
5059;DHT22;2548;52.050;11.036;2022-12-07T05:48:27;3.40;99.90
5059;DHT22;2548;52.050;11.036;2022-12-07T05:50:54;3.40;99.90
5059;DHT22;2548;52.050;11.036;2022-12-07T05:53:22;3.40;99.90
5059;DHT22;2548;52.050;11.036;2022-12-07T05:55:49;3.40;99.90
5059;DHT22;2548;52.050;11.036;2022-12-07T05:58:17;3.40;99.90
5059;DHT22;2548;52.050;11.036;2022-12-07T06:01:02;3.30;99.90
5059;DHT22;2548;52.050;11.036;2022-12-07T06:03:30;3.40;99.90
5059;DHT22;2548;52.050;11.036;2022-12-07T06:05:57;3.40;99.90
5059;DHT22;2548;52.050;11.036;2022-12-07T06:08:24;3.40;99.90
5059;DHT22;2548;52.050;11.036;2022-12-07T06:10:52;3.40;99.90
5059;DHT22;2548;52.050;11.036;2022-12-07T06:13:39;3.40;99.90
5059;DHT22;2548;52.050;11.036;2022-12-07T06:16:07;3.40;99.90
5059;DHT22;2548;52.050;11.036;2022-12-07T06:18:35;3.40;99.90
5059;DHT22;2548;52.050;11.036;2022-12-07T06:21:03;3.40;99.90
5059;DHT22;2548;52.050;11.036;2022-12-07T06:23:30;3.50;99.90
5059;DHT22;2548;52.050;11.036;2022-12-07T06:25:57;3.40;99.90
5059;DHT22;2548;52.050;11.036;2022-12-07T06:28:25;3.40;99.90
5059;DHT22;2548;52.050;11.036;2022-12-07T06:30:57;3.40;99.90
5059;DHT22;2548;52.050;11.036;2022-12-07T06:33:26;3.40;99.90
5059;DHT22;2548;52.050;11.036;2022-12-07T06:35:54;3.40;99.90
5059;DHT22;2548;52.050;11.036;2022-12-07T06:38:21;3.40;99.90
5059;DHT22;2548;52.050;11.036;2022-12-07T06:40:49;3.40;99.90
5059;DHT22;2548;52.050;11.036;2022-12-07T06:43:16;3.40;99.90
5059;DHT22;2548;52.050;11.036;2022-12-07T06:45:44;3.40;99.90
5059;DHT22;2548;52.050;11.036;2022-12-07T06:48:11;3.50;99.90
5059;DHT22;2548;52.050;11.036;2022-12-07T06:50:40;3.40;99.90
5059;DHT22;2548;52.050;11.036;2022-12-07T06:53:08;3.40;99.90
5059;DHT22;2548;52.050;11.036;2022-12-07T06:55:36;3.40;99.90
5059;DHT22;2548;52.050;11.036;2022-12-07T06:58:03;3.40;99.90
5059;DHT22;2548;52.050;11.036;2022-12-07T07:00:31;3.40;99.90
5059;DHT22;2548;52.050;11.036;2022-12-07T07:03:00;3.40;99.90
5059;DHT22;2548;52.050;11.036;2022-12-07T07:05:28;3.30;99.90
5059;DHT22;2548;52.050;11.036;2022-12-07T07:07:57;3.40;99.90
5059;DHT22;2548;52.050;11.036;2022-12-07T07:10:24;3.40;99.90
5059;DHT22;2548;52.050;11.036;2022-12-07T07:12:52;3.30;99.90
5059;DHT22;2548;52.050;11.036;2022-12-07T07:15:20;3.30;99.90
5059;DHT22;2548;52.050;11.036;2022-12-07T07:17:47;3.20;99.90
5059;DHT22;2548;52.050;11.036;2022-12-07T07:20:14;3.10;99.90
5059;DHT22;2548;52.050;11.036;2022-12-07T07:22:42;3.10;99.90
5059;DHT22;2548;52.050;11.036;2022-12-07T07:25:11;3.00;99.90
5059;DHT22;2548;52.050;11.036;2022-12-07T07:27:38;3.00;99.90
5059;DHT22;2548;52.050;11.036;2022-12-07T07:30:06;2.90;99.90
5059;DHT22;2548;52.050;11.036;2022-12-07T07:32:34;2.80;99.90
5059;DHT22;2548;52.050;11.036;2022-12-07T07:35:02;2.80;99.90
5059;DHT22;2548;52.050;11.036;2022-12-07T07:37:29;2.80;99.90
5059;DHT22;2548;52.050;11.036;2022-12-07T07:39:57;2.70;99.90
5059;DHT22;2548;52.050;11.036;2022-12-07T07:42:25;2.70;99.90
5059;DHT22;2548;52.050;11.036;2022-12-07T07:44:53;2.70;99.90
5059;DHT22;2548;52.050;11.036;2022-12-07T07:47:20;2.70;99.90
5059;DHT22;2548;52.050;11.036;2022-12-07T07:49:48;2.60;99.90
5059;DHT22;2548;52.050;11.036;2022-12-07T07:52:15;2.60;99.90
5059;DHT22;2548;52.050;11.036;2022-12-07T07:54:42;2.60;99.90
5059;DHT22;2548;52.050;11.036;2022-12-07T07:57:10;2.60;99.90
5059;DHT22;2548;52.050;11.036;2022-12-07T07:59:39;2.60;99.90
5059;DHT22;2548;52.050;11.036;2022-12-07T08:02:07;2.60;99.90
5059;DHT22;2548;52.050;11.036;2022-12-07T08:04:36;2.60;99.90
5059;DHT22;2548;52.050;11.036;2022-12-07T08:07:03;2.60;99.90
5059;DHT22;2548;52.050;11.036;2022-12-07T08:09:31;2.50;99.90
5059;DHT22;2548;52.050;11.036;2022-12-07T08:11:58;2.60;99.90
5059;DHT22;2548;52.050;11.036;2022-12-07T08:14:26;2.60;99.90
5059;DHT22;2548;52.050;11.036;2022-12-07T08:16:56;2.60;99.90
5059;DHT22;2548;52.050;11.036;2022-12-07T08:19:23;2.60;99.90
5059;DHT22;2548;52.050;11.036;2022-12-07T08:21:51;2.60;99.90
5059;DHT22;2548;52.050;11.036;2022-12-07T08:24:19;2.60;99.90
5059;DHT22;2548;52.050;11.036;2022-12-07T08:26:46;2.60;99.90
5059;DHT22;2548;52.050;11.036;2022-12-07T08:29:14;2.60;99.90
5059;DHT22;2548;52.050;11.036;2022-12-07T08:31:42;2.60;99.90
5059;DHT22;2548;52.050;11.036;2022-12-07T08:34:11;2.60;99.90
5059;DHT22;2548;52.050;11.036;2022-12-07T08:36:39;2.70;99.90
5059;DHT22;2548;52.050;11.036;2022-12-07T08:39:07;2.80;99.90
5059;DHT22;2548;52.050;11.036;2022-12-07T08:41:34;2.90;99.90
5059;DHT22;2548;52.050;11.036;2022-12-07T08:44:02;3.00;99.90
5059;DHT22;2548;52.050;11.036;2022-12-07T08:46:32;3.00;99.90
5059;DHT22;2548;52.050;11.036;2022-12-07T08:49:05;3.10;99.90
5059;DHT22;2548;52.050;11.036;2022-12-07T08:51:35;3.10;99.90
5059;DHT22;2548;52.050;11.036;2022-12-07T08:54:06;3.20;99.90
5059;DHT22;2548;52.050;11.036;2022-12-07T08:56:35;3.30;99.90
5059;DHT22;2548;52.050;11.036;2022-12-07T08:59:03;3.30;99.90
5059;DHT22;2548;52.050;11.036;2022-12-07T09:01:31;3.40;99.90
5059;DHT22;2548;52.050;11.036;2022-12-07T09:03:58;3.40;99.90
5059;DHT22;2548;52.050;11.036;2022-12-07T09:06:26;3.50;99.90
5059;DHT22;2548;52.050;11.036;2022-12-07T09:08:58;3.40;99.90
5059;DHT22;2548;52.050;11.036;2022-12-07T09:11:27;3.50;99.90
5059;DHT22;2548;52.050;11.036;2022-12-07T09:13:55;3.40;99.90
5059;DHT22;2548;52.050;11.036;2022-12-07T09:16:22;3.50;99.90
5059;DHT22;2548;52.050;11.036;2022-12-07T09:18:50;3.50;99.90
5059;DHT22;2548;52.050;11.036;2022-12-07T09:21:17;3.60;99.90
5059;DHT22;2548;52.050;11.036;2022-12-07T09:23:45;3.60;99.90
5059;DHT22;2548;52.050;11.036;2022-12-07T09:26:14;3.60;99.90
5059;DHT22;2548;52.050;11.036;2022-12-07T09:28:41;3.70;99.90
5059;DHT22;2548;52.050;11.036;2022-12-07T09:31:08;3.70;99.90
5059;DHT22;2548;52.050;11.036;2022-12-07T09:33:36;3.80;99.90
5059;DHT22;2548;52.050;11.036;2022-12-07T09:36:04;3.80;99.90
5059;DHT22;2548;52.050;11.036;2022-12-07T09:38:32;3.80;99.90
5059;DHT22;2548;52.050;11.036;2022-12-07T09:41:05;3.80;99.90
5059;DHT22;2548;52.050;11.036;2022-12-07T09:43:35;3.80;99.90
5059;DHT22;2548;52.050;11.036;2022-12-07T09:46:04;3.90;99.90
5059;DHT22;2548;52.050;11.036;2022-12-07T09:48:33;3.90;99.90
5059;DHT22;2548;52.050;11.036;2022-12-07T09:51:10;3.90;99.90
5059;DHT22;2548;52.050;11.036;2022-12-07T09:53:41;3.90;99.90
5059;DHT22;2548;52.050;11.036;2022-12-07T09:56:11;3.90;99.90
5059;DHT22;2548;52.050;11.036;2022-12-07T09:58:42;3.90;99.90
5059;DHT22;2548;52.050;11.036;2022-12-07T10:01:12;3.90;99.90
5059;DHT22;2548;52.050;11.036;2022-12-07T10:03:49;3.90;99.90
5059;DHT22;2548;52.050;11.036;2022-12-07T10:06:17;3.90;99.90
5059;DHT22;2548;52.050;11.036;2022-12-07T10:08:45;4.00;99.90
5059;DHT22;2548;52.050;11.036;2022-12-07T10:11:13;3.90;99.90
5059;DHT22;2548;52.050;11.036;2022-12-07T10:13:44;3.90;99.90
5059;DHT22;2548;52.050;11.036;2022-12-07T10:16:37;3.80;99.90
5059;DHT22;2548;52.050;11.036;2022-12-07T10:19:19;3.80;99.90
5059;DHT22;2548;52.050;11.036;2022-12-07T10:22:04;3.70;99.90
5059;DHT22;2548;52.050;11.036;2022-12-07T10:24:32;3.70;99.90
5059;DHT22;2548;52.050;11.036;2022-12-07T10:27:00;3.70;99.90
5059;DHT22;2548;52.050;11.036;2022-12-07T10:29:31;3.70;99.90
5059;DHT22;2548;52.050;11.036;2022-12-07T10:32:01;3.80;99.90
5059;DHT22;2548;52.050;11.036;2022-12-07T10:34:31;3.90;99.90
5059;DHT22;2548;52.050;11.036;2022-12-07T10:37:15;3.90;99.90
5059;DHT22;2548;52.050;11.036;2022-12-07T10:39:45;3.90;99.90
5059;DHT22;2548;52.050;11.036;2022-12-07T10:42:17;4.00;99.90
5059;DHT22;2548;52.050;11.036;2022-12-07T10:44:47;4.20;99.90
5059;DHT22;2548;52.050;11.036;2022-12-07T10:47:26;4.30;99.90
5059;DHT22;2548;52.050;11.036;2022-12-07T10:50:23;4.30;99.90
5059;DHT22;2548;52.050;11.036;2022-12-07T10:53:17;4.40;99.90
5059;DHT22;2548;52.050;11.036;2022-12-07T10:56:00;4.30;99.90
5059;DHT22;2548;52.050;11.036;2022-12-07T10:58:41;4.30;99.90
5059;DHT22;2548;52.050;11.036;2022-12-07T11:01:20;4.20;99.90
5059;DHT22;2548;52.050;11.036;2022-12-07T11:03:58;4.30;99.90
5059;DHT22;2548;52.050;11.036;2022-12-07T11:06:34;4.30;99.90
5059;DHT22;2548;52.050;11.036;2022-12-07T11:09:16;4.30;99.90
5059;DHT22;2548;52.050;11.036;2022-12-07T11:11:55;4.40;99.90
5059;DHT22;2548;52.050;11.036;2022-12-07T11:14:33;4.40;99.90
5059;DHT22;2548;52.050;11.036;2022-12-07T11:17:07;4.40;99.90
5059;DHT22;2548;52.050;11.036;2022-12-07T11:19:52;4.40;99.90
5059;DHT22;2548;52.050;11.036;2022-12-07T11:22:34;4.30;99.90
5059;DHT22;2548;52.050;11.036;2022-12-07T11:25:16;4.30;99.90
5059;DHT22;2548;52.050;11.036;2022-12-07T11:27:48;4.30;99.90
5059;DHT22;2548;52.050;11.036;2022-12-07T11:30:21;4.30;99.90
5059;DHT22;2548;52.050;11.036;2022-12-07T11:33:04;4.30;99.90
5059;DHT22;2548;52.050;11.036;2022-12-07T11:35:45;4.30;99.90
5059;DHT22;2548;52.050;11.036;2022-12-07T11:38:20;4.30;99.90
5059;DHT22;2548;52.050;11.036;2022-12-07T11:40:50;4.30;99.90
5059;DHT22;2548;52.050;11.036;2022-12-07T11:43:22;4.40;99.90
5059;DHT22;2548;52.050;11.036;2022-12-07T11:45:59;4.40;99.90
5059;DHT22;2548;52.050;11.036;2022-12-07T11:48:33;4.40;99.90
5059;DHT22;2548;52.050;11.036;2022-12-07T11:51:02;4.40;99.90
5059;DHT22;2548;52.050;11.036;2022-12-07T11:53:35;4.40;99.90
5059;DHT22;2548;52.050;11.036;2022-12-07T11:56:09;4.40;99.90
5059;DHT22;2548;52.050;11.036;2022-12-07T11:58:48;4.40;99.90
5059;DHT22;2548;52.050;11.036;2022-12-07T12:01:31;4.40;99.90
5059;DHT22;2548;52.050;11.036;2022-12-07T12:04:07;4.40;99.90
5059;DHT22;2548;52.050;11.036;2022-12-07T12:06:42;4.30;99.90
5059;DHT22;2548;52.050;11.036;2022-12-07T12:09:13;4.30;99.90
5059;DHT22;2548;52.050;11.036;2022-12-07T12:12:02;4.30;99.90
5059;DHT22;2548;52.050;11.036;2022-12-07T12:14:42;4.20;99.90
5059;DHT22;2548;52.050;11.036;2022-12-07T12:17:39;4.20;99.90
5059;DHT22;2548;52.050;11.036;2022-12-07T12:20:20;4.10;99.90
5059;DHT22;2548;52.050;11.036;2022-12-07T12:22:52;4.20;99.90
5059;DHT22;2548;52.050;11.036;2022-12-07T12:25:23;4.10;99.90
5059;DHT22;2548;52.050;11.036;2022-12-07T12:27:54;4.10;99.90
5059;DHT22;2548;52.050;11.036;2022-12-07T12:30:40;4.20;99.90
5059;DHT22;2548;52.050;11.036;2022-12-07T12:33:15;4.10;99.90
5059;DHT22;2548;52.050;11.036;2022-12-07T12:35:45;4.10;99.90
5059;DHT22;2548;52.050;11.036;2022-12-07T12:38:31;4.10;99.90
5059;DHT22;2548;52.050;11.036;2022-12-07T12:41:00;4.10;99.90
5059;DHT22;2548;52.050;11.036;2022-12-07T12:43:50;4.10;99.90
5059;DHT22;2548;52.050;11.036;2022-12-07T12:46:38;4.20;99.90
5059;DHT22;2548;52.050;11.036;2022-12-07T12:49:40;4.20;99.90
5059;DHT22;2548;52.050;11.036;2022-12-07T12:58:47;4.20;99.90
5059;DHT22;2548;52.050;11.036;2022-12-07T13:01:40;4.10;99.90
5059;DHT22;2548;52.050;11.036;2022-12-07T13:09:56;4.00;99.90
5059;DHT22;2548;52.050;11.036;2022-12-07T13:12:24;4.00;99.90
5059;DHT22;2548;52.050;11.036;2022-12-07T13:14:56;4.00;99.90
5059;DHT22;2548;52.050;11.036;2022-12-07T13:17:57;3.90;99.90
5059;DHT22;2548;52.050;11.036;2022-12-07T13:20:44;3.90;99.90
5059;DHT22;2548;52.050;11.036;2022-12-07T13:23:12;3.90;99.90
5059;DHT22;2548;52.050;11.036;2022-12-07T13:26:09;3.80;99.90
5059;DHT22;2548;52.050;11.036;2022-12-07T13:28:42;3.80;99.90
5059;DHT22;2548;52.050;11.036;2022-12-07T13:31:16;3.60;99.90
5059;DHT22;2548;52.050;11.036;2022-12-07T13:33:47;3.50;99.90
5059;DHT22;2548;52.050;11.036;2022-12-07T13:36:20;3.50;99.90
5059;DHT22;2548;52.050;11.036;2022-12-07T13:38:51;3.40;99.90
5059;DHT22;2548;52.050;11.036;2022-12-07T13:41:21;3.30;99.90
5059;DHT22;2548;52.050;11.036;2022-12-07T13:44:02;3.30;99.90
5059;DHT22;2548;52.050;11.036;2022-12-07T13:46:43;3.30;99.90
5059;DHT22;2548;52.050;11.036;2022-12-07T13:49:20;3.30;99.90
5059;DHT22;2548;52.050;11.036;2022-12-07T13:51:49;3.30;99.90
5059;DHT22;2548;52.050;11.036;2022-12-07T13:54:17;3.40;99.90
5059;DHT22;2548;52.050;11.036;2022-12-07T13:56:48;3.30;99.90
5059;DHT22;2548;52.050;11.036;2022-12-07T13:59:19;3.30;99.90
5059;DHT22;2548;52.050;11.036;2022-12-07T14:01:50;3.30;99.90
5059;DHT22;2548;52.050;11.036;2022-12-07T14:04:32;3.30;99.90
5059;DHT22;2548;52.050;11.036;2022-12-07T14:07:01;3.30;99.90
5059;DHT22;2548;52.050;11.036;2022-12-07T14:09:54;3.30;99.90
5059;DHT22;2548;52.050;11.036;2022-12-07T14:12:22;3.20;99.90
5059;DHT22;2548;52.050;11.036;2022-12-07T14:14:51;3.20;99.90
5059;DHT22;2548;52.050;11.036;2022-12-07T14:17:21;3.30;99.90
5059;DHT22;2548;52.050;11.036;2022-12-07T14:19:51;3.30;99.90
5059;DHT22;2548;52.050;11.036;2022-12-07T14:22:27;3.30;99.90
5059;DHT22;2548;52.050;11.036;2022-12-07T14:25:00;3.20;99.90
5059;DHT22;2548;52.050;11.036;2022-12-07T14:27:32;3.20;99.90
5059;DHT22;2548;52.050;11.036;2022-12-07T14:30:04;3.20;99.90
5059;DHT22;2548;52.050;11.036;2022-12-07T14:32:35;3.20;99.90
5059;DHT22;2548;52.050;11.036;2022-12-07T14:35:08;3.10;99.90
5059;DHT22;2548;52.050;11.036;2022-12-07T14:37:37;3.20;99.90
5059;DHT22;2548;52.050;11.036;2022-12-07T14:40:09;3.10;99.90
5059;DHT22;2548;52.050;11.036;2022-12-07T14:42:39;3.10;99.90
5059;DHT22;2548;52.050;11.036;2022-12-07T14:45:13;3.10;99.90
5059;DHT22;2548;52.050;11.036;2022-12-07T14:47:41;3.10;99.90
5059;DHT22;2548;52.050;11.036;2022-12-07T14:50:12;3.10;99.90
5059;DHT22;2548;52.050;11.036;2022-12-07T14:52:41;3.00;99.90
5059;DHT22;2548;52.050;11.036;2022-12-07T14:55:14;3.00;99.90
5059;DHT22;2548;52.050;11.036;2022-12-07T14:57:41;3.00;99.90
5059;DHT22;2548;52.050;11.036;2022-12-07T15:00:15;3.00;99.90
5059;DHT22;2548;52.050;11.036;2022-12-07T15:02:43;2.90;99.90
5059;DHT22;2548;52.050;11.036;2022-12-07T15:05:11;2.90;99.90
5059;DHT22;2548;52.050;11.036;2022-12-07T15:07:39;2.90;99.90
5059;DHT22;2548;52.050;11.036;2022-12-07T15:10:13;2.80;99.90
5059;DHT22;2548;52.050;11.036;2022-12-07T15:12:42;2.80;99.90
5059;DHT22;2548;52.050;11.036;2022-12-07T15:15:09;2.80;99.90
5059;DHT22;2548;52.050;11.036;2022-12-07T15:17:38;2.80;99.90
5059;DHT22;2548;52.050;11.036;2022-12-07T15:20:09;2.70;99.90
5059;DHT22;2548;52.050;11.036;2022-12-07T15:22:38;2.60;99.90
5059;DHT22;2548;52.050;11.036;2022-12-07T15:25:06;2.70;99.90
5059;DHT22;2548;52.050;11.036;2022-12-07T15:27:34;2.70;99.90
5059;DHT22;2548;52.050;11.036;2022-12-07T15:30:02;2.60;99.90
5059;DHT22;2548;52.050;11.036;2022-12-07T15:32:30;2.60;99.90
5059;DHT22;2548;52.050;11.036;2022-12-07T15:34:59;2.60;99.90
5059;DHT22;2548;52.050;11.036;2022-12-07T15:37:27;2.60;99.90
5059;DHT22;2548;52.050;11.036;2022-12-07T15:39:55;2.60;99.90
5059;DHT22;2548;52.050;11.036;2022-12-07T15:42:22;2.60;99.90
5059;DHT22;2548;52.050;11.036;2022-12-07T15:44:50;2.60;99.90
5059;DHT22;2548;52.050;11.036;2022-12-07T15:47:34;2.60;99.90
5059;DHT22;2548;52.050;11.036;2022-12-07T15:50:05;2.60;99.90
5059;DHT22;2548;52.050;11.036;2022-12-07T15:52:34;2.60;99.90
5059;DHT22;2548;52.050;11.036;2022-12-07T15:55:02;2.70;99.90
5059;DHT22;2548;52.050;11.036;2022-12-07T15:57:31;2.70;99.90
5059;DHT22;2548;52.050;11.036;2022-12-07T15:59:59;2.70;99.90
5059;DHT22;2548;52.050;11.036;2022-12-07T16:02:26;2.70;99.90
5059;DHT22;2548;52.050;11.036;2022-12-07T16:04:54;2.70;99.90
5059;DHT22;2548;52.050;11.036;2022-12-07T16:07:23;2.70;99.90
5059;DHT22;2548;52.050;11.036;2022-12-07T16:09:50;2.60;99.90
5059;DHT22;2548;52.050;11.036;2022-12-07T16:12:18;2.60;99.90
5059;DHT22;2548;52.050;11.036;2022-12-07T16:14:46;2.60;99.90
5059;DHT22;2548;52.050;11.036;2022-12-07T16:17:13;2.60;99.90
5059;DHT22;2548;52.050;11.036;2022-12-07T16:19:41;2.70;99.90
5059;DHT22;2548;52.050;11.036;2022-12-07T16:22:08;2.70;99.90
5059;DHT22;2548;52.050;11.036;2022-12-07T16:24:37;2.70;99.90
5059;DHT22;2548;52.050;11.036;2022-12-07T16:27:05;2.70;99.90
5059;DHT22;2548;52.050;11.036;2022-12-07T16:29:32;2.70;99.90
5059;DHT22;2548;52.050;11.036;2022-12-07T16:32:00;2.70;99.90
5059;DHT22;2548;52.050;11.036;2022-12-07T16:34:27;2.70;99.90
5059;DHT22;2548;52.050;11.036;2022-12-07T16:36:55;2.70;99.90
5059;DHT22;2548;52.050;11.036;2022-12-07T16:39:22;2.70;99.90
5059;DHT22;2548;52.050;11.036;2022-12-07T16:41:51;2.70;99.90
5059;DHT22;2548;52.050;11.036;2022-12-07T16:44:19;2.70;99.90
5059;DHT22;2548;52.050;11.036;2022-12-07T16:46:47;2.70;99.90